createdAt,value
2022-08-16T00:00:04.484Z,79.24
2022-08-16T00:00:57.749Z,79.04
2022-08-16T00:01:59.865Z,78.34
2022-08-16T00:02:57.718Z,78.84
2022-08-16T00:03:57.736Z,78.78
2022-08-16T00:04:59.591Z,79.14
2022-08-16T00:05:57.995Z,78.78
2022-08-16T00:06:57.685Z,78.47
2022-08-16T00:07:57.674Z,78.47
2022-08-16T00:08:57.677Z,78.88
2022-08-16T00:09:57.667Z,78.27
2022-08-16T00:10:57.662Z,78.38
2022-08-16T00:11:57.649Z,78.88
2022-08-16T00:12:57.803Z,78.58
2022-08-16T00:13:57.615Z,78.78
2022-08-16T00:14:57.598Z,78.58
2022-08-16T00:15:57.605Z,78.38
2022-08-16T00:17:05.424Z,78.81
2022-08-16T00:17:58.595Z,79.11
2022-08-16T00:18:57.566Z,79.02
2022-08-16T00:19:57.555Z,78.31
2022-08-16T00:20:57.564Z,78.91
2022-08-16T00:22:01.649Z,79.22
2022-08-16T00:22:58.527Z,79.32
2022-08-16T00:23:57.516Z,79.72
2022-08-16T00:24:57.505Z,79.72
2022-08-16T00:26:36.074Z,79.72
2022-08-16T00:26:58.490Z,79.72
2022-08-16T00:27:57.480Z,79.82
2022-08-16T00:28:57.469Z,79.62
2022-08-16T00:30:08.892Z,80.06
2022-08-16T00:30:59.209Z,80.26
2022-08-16T00:32:00.933Z,80.16
2022-08-16T00:32:58.419Z,79.72
2022-08-16T00:33:57.423Z,80.22
2022-08-16T00:34:57.395Z,80.46
2022-08-16T00:35:57.410Z,80.16
2022-08-16T00:36:57.396Z,80.02
2022-08-16T00:37:59.464Z,80.26
2022-08-16T00:38:58.391Z,80.46
2022-08-16T00:39:58.851Z,80.77
2022-08-16T00:40:57.396Z,80.57
2022-08-16T00:41:57.345Z,80.87
2022-08-16T00:42:57.322Z,80.77
2022-08-16T00:43:57.338Z,80.77
2022-08-16T00:44:57.328Z,80.87
2022-08-16T00:46:00.210Z,80.66
2022-08-16T00:47:02.385Z,80.57
2022-08-16T00:47:57.305Z,80.87
2022-08-16T00:48:57.255Z,80.70
2022-08-16T00:49:57.258Z,80.40
2022-08-16T00:50:57.264Z,80.50
2022-08-16T00:51:57.225Z,80.10
2022-08-16T00:53:30.911Z,80.40
2022-08-16T00:53:57.240Z,80.10
2022-08-16T00:54:57.216Z,80.10
2022-08-16T00:55:57.232Z,80.40
2022-08-16T00:56:59.786Z,80.10
2022-08-16T00:58:00.104Z,80.20
2022-08-16T00:58:57.176Z,80.20
2022-08-16T00:59:59.569Z,80.10
2022-08-16T01:00:57.205Z,80.10
2022-08-16T01:01:57.161Z,80.50
2022-08-16T01:02:57.145Z,80.80
2022-08-16T01:03:57.128Z,81.10
2022-08-16T01:05:09.346Z,81.15
2022-08-16T01:05:58.109Z,81.41
2022-08-16T01:07:01.690Z,81.45
2022-08-16T01:07:59.632Z,81.41
2022-08-16T01:09:00.180Z,80.90
2022-08-16T01:09:57.074Z,81.41
2022-08-16T01:10:57.053Z,81.41
2022-08-16T01:11:57.059Z,81.10
2022-08-16T01:12:57.047Z,81.41
2022-08-16T01:13:57.021Z,81.41
2022-08-16T01:14:57.045Z,81.21
2022-08-16T01:15:57.016Z,81.51
2022-08-16T01:16:57.004Z,81.41
2022-08-16T01:17:56.980Z,81.30
2022-08-16T01:18:56.982Z,80.80
2022-08-16T01:19:57.353Z,80.70
2022-08-16T01:20:56.977Z,80.80
2022-08-16T01:21:56.964Z,80.80
2022-08-16T01:22:58.014Z,80.50
2022-08-16T01:23:58.393Z,80.30
2022-08-16T01:24:56.948Z,80.40
2022-08-16T01:25:59.956Z,80.40
2022-08-16T01:26:57.898Z,80.50
2022-08-16T01:27:57.894Z,80.60
2022-08-16T01:28:56.889Z,80.40
2022-08-16T01:29:59.336Z,80.60
2022-08-16T01:30:56.873Z,80.60
2022-08-16T01:31:56.832Z,80.80
2022-08-16T01:33:01.840Z,80.70
2022-08-16T01:33:57.820Z,80.90
2022-08-16T01:34:57.126Z,80.70
2022-08-16T01:35:56.809Z,81.41
2022-08-16T01:36:58.372Z,81.45
2022-08-16T01:37:56.806Z,81.45
2022-08-16T01:38:57.322Z,81.35
2022-08-16T01:39:56.814Z,81.75
2022-08-16T01:40:56.755Z,81.95
2022-08-16T01:41:56.745Z,81.79
2022-08-16T01:42:56.721Z,81.75
2022-08-16T01:44:01.239Z,81.89
2022-08-16T01:44:56.720Z,81.75
2022-08-16T01:45:57.902Z,82.05
2022-08-16T01:46:56.698Z,82.09
2022-08-16T01:47:56.703Z,82.19
2022-08-16T01:48:56.682Z,82.39
2022-08-16T01:50:42.184Z,82.19
2022-08-16T01:51:09.450Z,82.70
2022-08-16T01:51:57.650Z,82.50
2022-08-16T01:52:56.642Z,82.53
2022-08-16T01:53:56.627Z,82.73
2022-08-16T01:54:56.646Z,82.90
2022-08-16T01:55:56.633Z,82.79
2022-08-16T01:56:56.589Z,82.93
2022-08-16T01:57:56.662Z,82.73
2022-08-16T01:58:57.094Z,82.84
2022-08-16T01:59:56.639Z,83.10
2022-08-16T02:00:56.568Z,83.20
2022-08-16T02:02:00.032Z,82.70
2022-08-16T02:02:56.546Z,82.70
2022-08-16T02:03:58.517Z,82.84
2022-08-16T02:04:57.693Z,83.20
2022-08-16T02:05:56.521Z,82.53
2022-08-16T02:06:56.530Z,83.34
2022-08-16T02:07:56.508Z,83.04
2022-08-16T02:08:56.490Z,82.73
2022-08-16T02:09:57.287Z,83.04
2022-08-16T02:10:56.496Z,82.87
2022-08-16T02:11:56.462Z,82.84
2022-08-16T02:13:00.777Z,82.64
2022-08-16T02:13:56.425Z,82.73
2022-08-16T02:14:56.422Z,82.73
2022-08-16T02:15:56.424Z,82.73
2022-08-16T02:16:56.476Z,82.73
2022-08-16T02:17:56.419Z,82.93
2022-08-16T02:18:56.386Z,82.84
2022-08-16T02:19:59.860Z,82.64
2022-08-16T02:20:56.358Z,82.64
2022-08-16T02:22:08.530Z,82.67
2022-08-16T02:22:57.383Z,83.58
2022-08-16T02:23:57.327Z,83.58
2022-08-16T02:24:56.330Z,83.64
2022-08-16T02:25:56.327Z,83.68
2022-08-16T02:26:56.321Z,83.44
2022-08-16T02:27:56.311Z,83.74
2022-08-16T02:28:56.298Z,84.09
2022-08-16T02:30:05.564Z,83.18
2022-08-16T02:30:57.268Z,84.19
2022-08-16T02:32:03.266Z,83.68
2022-08-16T02:32:57.233Z,84.09
2022-08-16T02:33:56.255Z,83.78
2022-08-16T02:34:56.326Z,83.88
2022-08-16T02:36:00.032Z,83.98
2022-08-16T02:36:56.202Z,83.78
2022-08-16T02:37:56.351Z,84.09
2022-08-16T02:38:57.197Z,83.88
2022-08-16T02:39:56.192Z,83.92
2022-08-16T02:40:56.193Z,83.98
2022-08-16T02:41:56.205Z,83.58
2022-08-16T02:42:56.138Z,84.03
2022-08-16T02:43:56.139Z,84.12
2022-08-16T02:44:56.116Z,84.33
2022-08-16T02:45:56.312Z,84.43
2022-08-16T02:46:56.128Z,84.53
2022-08-16T02:48:01.513Z,84.63
2022-08-16T02:48:57.078Z,84.23
2022-08-16T02:49:59.218Z,84.73
2022-08-16T02:51:10.202Z,83.82
2022-08-16T02:51:57.067Z,83.32
2022-08-16T02:52:56.028Z,84.03
2022-08-16T02:53:56.528Z,83.28
2022-08-16T02:54:56.031Z,83.78
2022-08-16T02:55:56.026Z,83.82
2022-08-16T02:56:56.001Z,82.78
2022-08-16T02:57:55.978Z,82.67
2022-08-16T02:58:55.999Z,82.67
2022-08-16T02:59:55.969Z,83.07
2022-08-16T03:00:57.270Z,83.38
2022-08-16T03:01:55.945Z,83.07
2022-08-16T03:02:56.390Z,83.52
2022-08-16T03:04:41.328Z,83.32
2022-08-16T03:04:56.914Z,83.42
2022-08-16T03:05:55.906Z,83.01
2022-08-16T03:06:56.882Z,83.52
2022-08-16T03:07:55.893Z,83.32
2022-08-16T03:08:55.867Z,82.71
2022-08-16T03:09:55.859Z,82.91
2022-08-16T03:10:55.878Z,82.91
2022-08-16T03:11:55.834Z,82.71
2022-08-16T03:12:56.694Z,83.22
2022-08-16T03:13:56.701Z,82.85
2022-08-16T03:14:55.827Z,82.85
2022-08-16T03:15:55.807Z,82.95
2022-08-16T03:16:58.807Z,82.85
2022-08-16T03:17:55.783Z,83.36
2022-08-16T03:18:55.779Z,83.86
2022-08-16T03:19:59.908Z,83.56
2022-08-16T03:20:56.064Z,83.36
2022-08-16T03:21:55.754Z,83.36
2022-08-16T03:22:56.474Z,83.05
2022-08-16T03:23:55.721Z,83.36
2022-08-16T03:24:57.332Z,82.75
2022-08-16T03:25:55.710Z,83.36
2022-08-16T03:26:57.739Z,82.75
2022-08-16T03:27:55.674Z,83.86
2022-08-16T03:28:56.675Z,84.17
2022-08-16T03:29:55.653Z,83.15
2022-08-16T03:30:55.648Z,84.27
2022-08-16T03:31:55.639Z,84.47
2022-08-16T03:32:55.643Z,83.86
2022-08-16T03:33:55.624Z,83.66
2022-08-16T03:34:55.605Z,83.05
2022-08-16T03:35:57.219Z,84.17
2022-08-16T03:36:55.611Z,83.66
2022-08-16T03:38:03.273Z,83.90
2022-08-16T03:38:55.567Z,83.96
2022-08-16T03:39:56.499Z,84.06
2022-08-16T03:40:55.568Z,84.17
2022-08-16T03:41:59.316Z,84.00
2022-08-16T03:43:18.723Z,84.37
2022-08-16T03:43:56.522Z,83.15
2022-08-16T03:45:03.754Z,83.86
2022-08-16T03:45:56.504Z,84.37
2022-08-16T03:46:55.517Z,84.41
2022-08-16T03:47:58.516Z,84.61
2022-08-16T03:48:55.526Z,84.17
2022-08-16T03:49:55.511Z,84.17
2022-08-16T03:51:00.158Z,84.17
2022-08-16T03:51:56.438Z,84.17
2022-08-16T03:53:01.346Z,83.86
2022-08-16T03:54:00.697Z,84.47
2022-08-16T03:54:58.097Z,84.47
2022-08-16T03:55:55.400Z,84.71
2022-08-16T03:56:56.713Z,84.61
2022-08-16T03:57:55.409Z,84.67
2022-08-16T03:58:55.359Z,84.91
2022-08-16T03:59:56.360Z,84.67
2022-08-16T04:00:59.003Z,84.61
2022-08-16T04:01:55.353Z,84.27
2022-08-16T04:02:55.335Z,84.57
2022-08-16T04:03:55.323Z,84.77
2022-08-16T04:04:55.304Z,84.57
2022-08-16T04:05:55.329Z,84.67
2022-08-16T04:06:55.276Z,84.57
2022-08-16T04:07:55.300Z,84.97
2022-08-16T04:08:55.267Z,84.81
2022-08-16T04:09:55.248Z,84.81
2022-08-16T04:10:55.290Z,84.61
2022-08-16T04:11:55.267Z,84.77
2022-08-16T04:12:59.375Z,84.71
2022-08-16T04:13:59.926Z,84.57
2022-08-16T04:14:55.229Z,84.57
2022-08-16T04:15:55.204Z,84.37
2022-08-16T04:16:55.214Z,84.06
2022-08-16T04:17:55.188Z,84.57
2022-08-16T04:19:02.434Z,84.37
2022-08-16T04:19:58.505Z,84.57
2022-08-16T04:20:55.152Z,83.76
2022-08-16T04:21:56.684Z,84.06
2022-08-16T04:22:55.136Z,83.86
2022-08-16T04:23:55.150Z,82.75
2022-08-16T04:24:55.572Z,83.05
2022-08-16T04:25:55.110Z,82.81
2022-08-16T04:26:55.112Z,82.95
2022-08-16T04:27:55.972Z,82.75
2022-08-16T04:29:15.122Z,83.05
2022-08-16T04:30:03.038Z,82.85
2022-08-16T04:30:55.096Z,82.85
2022-08-16T04:31:56.753Z,83.01
2022-08-16T04:32:55.631Z,82.85
2022-08-16T04:33:55.055Z,82.85
2022-08-16T04:34:55.007Z,83.36
2022-08-16T04:35:55.002Z,82.75
2022-08-16T04:36:54.997Z,83.86
2022-08-16T04:37:54.975Z,83.15
2022-08-16T04:38:54.995Z,83.96
2022-08-16T04:39:57.180Z,82.61
2022-08-16T04:40:54.958Z,82.53
2022-08-16T04:41:56.981Z,79.83
2022-08-16T04:42:55.034Z,78.55
2022-08-16T04:43:54.917Z,77.07
2022-08-16T04:44:55.759Z,75.18
2022-08-16T04:46:00.129Z,73.74
2022-08-16T04:47:01.438Z,71.60
2022-08-16T04:47:56.147Z,71.03
2022-08-16T04:48:54.894Z,70.09
2022-08-16T04:49:54.860Z,69.23
2022-08-16T04:50:54.853Z,67.69
2022-08-16T04:51:55.390Z,66.96
2022-08-16T04:52:55.783Z,65.12
2022-08-16T04:53:54.855Z,64.69
2022-08-16T04:54:54.819Z,63.33
2022-08-16T04:55:54.792Z,62.40
2022-08-16T04:56:54.798Z,62.27
2022-08-16T04:57:54.792Z,61.15
2022-08-16T04:58:57.585Z,60.12
2022-08-16T04:59:54.782Z,59.89
2022-08-16T05:00:54.760Z,58.47
2022-08-16T05:01:58.023Z,58.59
2022-08-16T05:02:55.663Z,60.38
2022-08-16T05:04:00.294Z,62.34
2022-08-16T05:04:55.748Z,64.15
2022-08-16T05:05:59.184Z,65.12
2022-08-16T05:06:55.736Z,67.12
2022-08-16T05:07:58.304Z,67.99
2022-08-16T05:08:56.514Z,68.92
2022-08-16T05:09:54.670Z,68.59
2022-08-16T05:10:59.886Z,67.92
2022-08-16T05:11:57.396Z,65.92
2022-08-16T05:12:54.642Z,64.16
2022-08-16T05:13:54.638Z,62.50
2022-08-16T05:15:02.035Z,61.25
2022-08-16T05:15:54.667Z,59.59
2022-08-16T05:16:54.620Z,58.24
2022-08-16T05:17:58.785Z,57.92
2022-08-16T05:18:56.683Z,56.47
2022-08-16T05:19:57.692Z,56.24
2022-08-16T05:21:01.718Z,55.32
2022-08-16T05:21:55.628Z,54.60
2022-08-16T05:22:54.569Z,54.64
2022-08-16T05:23:55.915Z,53.66
2022-08-16T05:24:54.854Z,53.06
2022-08-16T05:25:54.506Z,52.94
2022-08-16T05:26:54.525Z,51.82
2022-08-16T05:27:54.492Z,52.02
2022-08-16T05:28:55.376Z,52.09
2022-08-16T05:30:00.931Z,51.89
2022-08-16T05:30:54.479Z,51.70
2022-08-16T05:31:54.434Z,52.17
2022-08-16T05:32:54.444Z,51.18
2022-08-16T05:33:54.608Z,51.87
2022-08-16T05:34:54.490Z,51.57
2022-08-16T05:35:55.871Z,52.19
2022-08-16T05:36:54.427Z,52.17
2022-08-16T05:37:54.404Z,51.54
2022-08-16T05:38:54.382Z,50.16
2022-08-16T05:39:55.283Z,50.73
2022-08-16T05:40:59.978Z,50.63
2022-08-16T05:41:55.342Z,50.21
2022-08-16T05:42:54.723Z,48.90
2022-08-16T05:43:58.916Z,48.88
2022-08-16T05:44:54.333Z,48.86
2022-08-16T05:45:54.316Z,48.36
2022-08-16T05:46:54.306Z,48.16
2022-08-16T05:47:59.515Z,48.24
2022-08-16T05:48:55.246Z,47.94
2022-08-16T05:49:55.299Z,48.24
2022-08-16T05:50:54.268Z,47.13
2022-08-16T05:51:54.276Z,46.96
2022-08-16T05:52:54.253Z,47.06
2022-08-16T05:53:54.244Z,47.16
2022-08-16T05:55:01.116Z,47.23
2022-08-16T05:55:55.234Z,46.98
2022-08-16T05:56:54.214Z,47.85
2022-08-16T05:57:54.219Z,46.96
2022-08-16T05:58:54.205Z,47.23
2022-08-16T05:59:59.609Z,46.00
2022-08-16T06:00:54.193Z,46.20
2022-08-16T06:01:54.242Z,46.37
2022-08-16T06:02:54.186Z,44.80
2022-08-16T06:03:54.157Z,45.12
2022-08-16T06:04:54.454Z,45.24
2022-08-16T06:05:54.163Z,45.29
2022-08-16T06:06:55.716Z,45.19
2022-08-16T06:07:58.367Z,45.67
2022-08-16T06:08:54.112Z,45.25
2022-08-16T06:09:54.101Z,44.76
2022-08-16T06:11:03.043Z,45.07
2022-08-16T06:11:55.092Z,44.80
2022-08-16T06:12:55.995Z,46.37
2022-08-16T06:13:55.433Z,46.15
2022-08-16T06:14:54.053Z,45.27
2022-08-16T06:15:54.047Z,44.56
2022-08-16T06:16:54.073Z,43.75
2022-08-16T06:17:54.053Z,44.32
2022-08-16T06:18:54.031Z,44.10
2022-08-16T06:19:54.018Z,43.24
2022-08-16T06:20:55.826Z,44.15
2022-08-16T06:21:55.382Z,44.98
2022-08-16T06:22:58.465Z,45.15
2022-08-16T06:23:54.976Z,45.17
2022-08-16T06:24:55.786Z,46.01
2022-08-16T06:25:55.023Z,44.44
2022-08-16T06:26:57.533Z,42.92
2022-08-16T06:27:57.467Z,43.02
2022-08-16T06:28:53.955Z,42.19
2022-08-16T06:29:53.920Z,41.27
2022-08-16T06:30:53.943Z,41.27
2022-08-16T06:31:53.933Z,41.68
2022-08-16T06:32:54.084Z,42.88
2022-08-16T06:33:53.923Z,43.39
2022-08-16T06:34:56.872Z,43.00
2022-08-16T06:35:59.382Z,43.41
2022-08-16T06:36:59.505Z,44.40
2022-08-16T06:37:54.871Z,44.10
2022-08-16T06:38:56.562Z,43.49
2022-08-16T06:39:53.867Z,44.47
2022-08-16T06:40:53.831Z,43.59
2022-08-16T06:41:53.814Z,44.06
2022-08-16T06:42:57.350Z,43.47
2022-08-16T06:43:54.825Z,43.66
2022-08-16T06:44:53.808Z,42.68
2022-08-16T06:45:53.799Z,43.37
2022-08-16T06:46:53.805Z,42.58
2022-08-16T06:47:56.297Z,42.08
2022-08-16T06:48:54.780Z,43.18
2022-08-16T06:49:58.969Z,43.15
2022-08-16T06:50:53.744Z,42.86
2022-08-16T06:51:53.761Z,42.55
2022-08-16T06:53:08.397Z,41.42
2022-08-16T06:53:54.706Z,41.21
2022-08-16T06:54:53.746Z,41.60
2022-08-16T06:55:54.013Z,40.62
2022-08-16T06:56:54.143Z,39.51
2022-08-16T06:57:53.683Z,39.70
2022-08-16T06:58:53.661Z,40.09
2022-08-16T06:59:58.269Z,40.19
2022-08-16T07:00:53.714Z,40.29
2022-08-16T07:01:55.118Z,41.17
2022-08-16T07:02:54.985Z,39.82
2022-08-16T07:03:55.823Z,43.45
2022-08-16T07:04:53.600Z,44.23
2022-08-16T07:05:53.952Z,43.74
2022-08-16T07:06:53.590Z,43.57
2022-08-16T07:07:54.159Z,43.43
2022-08-16T07:08:53.617Z,43.72
2022-08-16T07:09:53.562Z,42.86
2022-08-16T07:10:53.550Z,43.98
2022-08-16T07:11:53.537Z,44.96
2022-08-16T07:13:04.242Z,45.45
2022-08-16T07:14:00.637Z,44.79
2022-08-16T07:14:59.634Z,44.96
2022-08-16T07:15:55.529Z,43.76
2022-08-16T07:16:53.496Z,43.88
2022-08-16T07:17:53.489Z,44.55
2022-08-16T07:18:59.271Z,44.23
2022-08-16T07:20:30.177Z,44.04
2022-08-16T07:20:56.839Z,43.76
2022-08-16T07:21:59.513Z,43.12
2022-08-16T07:22:59.015Z,42.02
2022-08-16T07:23:58.073Z,42.45
2022-08-16T07:24:53.444Z,44.55
2022-08-16T07:25:53.428Z,45.51
2022-08-16T07:26:53.426Z,44.43
2022-08-16T07:27:53.440Z,44.16
2022-08-16T07:28:53.401Z,46.34
2022-08-16T07:29:55.533Z,44.77
2022-08-16T07:30:53.401Z,43.96
2022-08-16T07:31:53.749Z,43.94
2022-08-16T07:32:53.372Z,44.33
2022-08-16T07:33:54.932Z,44.13
2022-08-16T07:34:54.355Z,45.55
2022-08-16T07:35:53.351Z,46.19
2022-08-16T07:36:57.981Z,47.15
2022-08-16T07:37:54.324Z,45.87
2022-08-16T07:38:53.317Z,45.45
2022-08-16T07:39:54.797Z,44.43
2022-08-16T07:41:01.794Z,44.23
2022-08-16T07:41:54.304Z,43.41
2022-08-16T07:42:53.304Z,43.60
2022-08-16T07:43:53.278Z,43.43
2022-08-16T07:44:53.267Z,45.12
2022-08-16T07:45:53.456Z,44.60
2022-08-16T07:46:55.506Z,43.92
2022-08-16T07:47:53.256Z,43.84
2022-08-16T07:48:53.218Z,45.21
2022-08-16T07:49:58.159Z,44.48
2022-08-16T07:50:56.901Z,44.45
2022-08-16T07:51:55.924Z,45.14
2022-08-16T07:52:53.231Z,46.12
2022-08-16T07:54:02.618Z,45.12
2022-08-16T07:54:54.208Z,44.04
2022-08-16T07:55:53.164Z,44.96
2022-08-16T07:56:53.242Z,46.53
2022-08-16T07:57:59.935Z,44.59
2022-08-16T07:58:55.597Z,46.34
2022-08-16T07:59:53.139Z,44.55
2022-08-16T08:00:53.196Z,45.63
2022-08-16T08:01:53.329Z,43.94
2022-08-16T08:02:53.105Z,44.55
2022-08-16T08:03:53.092Z,44.26
2022-08-16T08:04:53.076Z,45.65
2022-08-16T08:05:53.116Z,46.04
2022-08-16T08:06:53.070Z,44.26
2022-08-16T08:07:53.059Z,45.04
2022-08-16T08:08:57.381Z,45.43
2022-08-16T08:09:54.045Z,45.41
2022-08-16T08:10:53.069Z,44.23
2022-08-16T08:11:59.814Z,44.57
2022-08-16T08:12:55.189Z,46.34
2022-08-16T08:13:53.588Z,45.09
2022-08-16T08:14:53.023Z,45.55
2022-08-16T08:15:53.447Z,46.02
2022-08-16T08:16:53.020Z,44.73
2022-08-16T08:17:52.974Z,45.97
2022-08-16T08:18:55.942Z,45.89
2022-08-16T08:19:53.684Z,46.58
2022-08-16T08:20:59.560Z,45.60
2022-08-16T08:22:00.636Z,46.17
2022-08-16T08:22:52.930Z,46.19
2022-08-16T08:23:52.913Z,45.09
2022-08-16T08:24:53.357Z,46.31
2022-08-16T08:25:54.767Z,45.94
2022-08-16T08:26:52.970Z,46.23
2022-08-16T08:27:57.514Z,46.68
2022-08-16T08:28:52.870Z,46.01
2022-08-16T08:30:48.913Z,46.11
2022-08-16T08:31:01.318Z,46.23
2022-08-16T08:31:53.030Z,47.16
2022-08-16T08:33:00.267Z,46.89
2022-08-16T08:33:53.839Z,47.44
2022-08-16T08:34:52.825Z,47.22
2022-08-16T08:35:52.814Z,46.15
2022-08-16T08:36:54.090Z,47.02
2022-08-16T08:37:55.481Z,46.72
2022-08-16T08:38:52.806Z,47.29
2022-08-16T08:39:54.691Z,44.98
2022-08-16T08:40:52.766Z,44.27
2022-08-16T08:41:52.759Z,44.30
2022-08-16T08:42:54.457Z,44.30
2022-08-16T08:43:53.783Z,44.71
2022-08-16T08:44:52.735Z,44.42
2022-08-16T08:45:53.605Z,44.59
2022-08-16T08:47:00.094Z,44.27
2022-08-16T08:47:54.173Z,43.96
2022-08-16T08:49:00.125Z,44.16
2022-08-16T08:49:55.194Z,43.45
2022-08-16T08:50:52.682Z,44.06
2022-08-16T08:51:52.697Z,44.20
2022-08-16T08:52:52.935Z,44.81
2022-08-16T08:53:57.471Z,45.67
2022-08-16T08:54:52.646Z,44.98
2022-08-16T08:55:58.741Z,45.99
2022-08-16T08:56:52.619Z,46.41
2022-08-16T08:57:52.610Z,45.81
2022-08-16T08:58:54.338Z,46.11
2022-08-16T08:59:52.928Z,46.01
2022-08-16T09:00:52.587Z,46.45
2022-08-16T09:01:57.154Z,46.31
2022-08-16T09:02:54.034Z,45.01
2022-08-16T09:03:52.599Z,43.98
2022-08-16T09:04:52.634Z,43.79
2022-08-16T09:05:52.545Z,43.96
2022-08-16T09:06:52.527Z,43.26
2022-08-16T09:07:54.818Z,44.41
2022-08-16T09:08:53.511Z,42.25
2022-08-16T09:10:06.156Z,42.08
2022-08-16T09:10:58.861Z,42.37
2022-08-16T09:12:04.422Z,41.78
2022-08-16T09:12:54.489Z,42.90
2022-08-16T09:13:52.474Z,43.59
2022-08-16T09:14:52.449Z,43.90
2022-08-16T09:15:52.454Z,45.05
2022-08-16T09:17:01.715Z,46.33
2022-08-16T09:17:54.666Z,45.23
2022-08-16T09:18:57.683Z,46.15
2022-08-16T09:19:55.676Z,46.15
2022-08-16T09:20:59.034Z,46.23
2022-08-16T09:21:56.158Z,46.11
2022-08-16T09:22:52.968Z,46.31
2022-08-16T09:23:52.935Z,44.98
2022-08-16T09:24:58.140Z,43.59
2022-08-16T09:25:53.364Z,43.90
2022-08-16T09:26:52.604Z,45.32
2022-08-16T09:27:57.984Z,44.93
2022-08-16T09:29:14.529Z,45.48
2022-08-16T09:30:00.714Z,44.30
2022-08-16T09:30:53.312Z,44.08
2022-08-16T09:31:53.480Z,43.98
2022-08-16T09:32:52.296Z,43.49
2022-08-16T09:33:52.418Z,42.16
2022-08-16T09:34:52.279Z,42.77
2022-08-16T09:35:53.557Z,43.43
2022-08-16T09:36:53.925Z,41.94
2022-08-16T09:38:00.580Z,42.02
2022-08-16T09:38:53.262Z,40.72
2022-08-16T09:39:53.296Z,41.02
2022-08-16T09:40:52.258Z,40.74
2022-08-16T09:41:53.795Z,41.47
2022-08-16T09:42:56.395Z,41.94
2022-08-16T09:43:59.781Z,41.55
2022-08-16T09:45:11.370Z,40.96
2022-08-16T09:45:54.455Z,40.84
2022-08-16T09:46:55.917Z,41.43
2022-08-16T09:47:56.524Z,41.53
2022-08-16T09:48:52.137Z,41.16
2022-08-16T09:49:52.123Z,43.43
2022-08-16T09:50:52.108Z,42.25
2022-08-16T09:51:52.129Z,43.14
2022-08-16T09:52:52.150Z,42.06
2022-08-16T09:53:54.030Z,41.47
2022-08-16T09:54:52.068Z,42.35
2022-08-16T09:55:52.062Z,41.82
2022-08-16T09:56:53.774Z,41.92
2022-08-16T09:57:52.713Z,41.24
2022-08-16T09:59:04.790Z,40.84
2022-08-16T09:59:56.012Z,39.95
2022-08-16T10:00:52.025Z,41.82
2022-08-16T10:01:52.006Z,41.84
2022-08-16T10:02:52.009Z,42.72
2022-08-16T10:04:01.095Z,43.36
2022-08-16T10:04:55.114Z,43.85
2022-08-16T10:05:51.970Z,43.65
2022-08-16T10:06:52.020Z,44.42
2022-08-16T10:07:52.178Z,44.34
2022-08-16T10:08:59.753Z,45.42
2022-08-16T10:09:54.697Z,44.24
2022-08-16T10:10:51.944Z,44.62
2022-08-16T10:11:51.919Z,44.42
2022-08-16T10:12:55.838Z,44.12
2022-08-16T10:13:52.925Z,44.32
2022-08-16T10:14:51.889Z,43.95
2022-08-16T10:15:55.077Z,43.97
2022-08-16T10:16:59.779Z,45.35
2022-08-16T10:18:01.288Z,44.66
2022-08-16T10:19:06.646Z,44.09
2022-08-16T10:19:52.867Z,46.00
2022-08-16T10:20:51.824Z,45.90
2022-08-16T10:21:56.568Z,46.00
2022-08-16T10:22:58.770Z,46.12
2022-08-16T10:23:53.819Z,46.42
2022-08-16T10:24:55.834Z,47.19
2022-08-16T10:27:16.723Z,46.50
2022-08-16T10:27:19.839Z,46.12
2022-08-16T10:27:57.007Z,46.12
2022-08-16T10:28:53.749Z,46.03
2022-08-16T10:30:00.669Z,46.81
2022-08-16T10:30:56.629Z,45.88
2022-08-16T10:31:53.839Z,45.00
2022-08-16T10:32:51.715Z,45.49
2022-08-16T10:33:51.704Z,45.76
2022-08-16T10:34:52.561Z,45.37
2022-08-16T10:35:52.359Z,45.19
2022-08-16T10:36:54.151Z,44.21
2022-08-16T10:37:52.390Z,45.31
2022-08-16T10:38:52.200Z,44.65
2022-08-16T10:39:51.702Z,44.94
2022-08-16T10:40:51.639Z,44.72
2022-08-16T10:41:51.650Z,44.51
2022-08-16T10:42:51.622Z,43.82
2022-08-16T10:43:51.628Z,43.42
2022-08-16T10:44:53.636Z,45.09
2022-08-16T10:46:00.308Z,44.48
2022-08-16T10:46:52.596Z,43.87
2022-08-16T10:48:00.624Z,42.12
2022-08-16T10:48:52.588Z,44.31
2022-08-16T10:49:51.545Z,43.79
2022-08-16T10:50:51.544Z,44.01
2022-08-16T10:52:03.040Z,45.21
2022-08-16T10:52:58.313Z,44.90
2022-08-16T10:53:52.530Z,44.51
2022-08-16T10:54:59.177Z,44.70
2022-08-16T10:55:57.493Z,45.98
2022-08-16T10:56:56.815Z,45.09
2022-08-16T10:57:52.479Z,44.90
2022-08-16T10:58:51.474Z,43.70
2022-08-16T10:59:57.874Z,42.71
2022-08-16T11:00:55.510Z,43.70
2022-08-16T11:02:59.737Z,44.13
2022-08-16T11:03:54.518Z,44.35
2022-08-16T11:05:08.287Z,43.96
2022-08-16T11:06:00.767Z,44.33
2022-08-16T11:07:41.838Z,43.62
2022-08-16T11:07:53.999Z,44.21
2022-08-16T11:09:20.835Z,43.03
2022-08-16T11:09:53.633Z,44.19
2022-08-16T11:11:04.857Z,43.70
2022-08-16T11:12:14.003Z,43.50
2022-08-16T11:12:52.762Z,43.89
2022-08-16T11:13:59.797Z,43.82
2022-08-16T11:15:55.421Z,44.09
2022-08-16T11:17:10.698Z,43.82
2022-08-16T11:18:54.768Z,42.83
2022-08-16T11:19:03.786Z,43.44
2022-08-16T11:20:52.290Z,44.55
2022-08-16T11:22:51.266Z,44.94
2022-08-16T11:23:56.887Z,44.72
2022-08-16T11:26:22.703Z,43.71
2022-08-16T11:27:53.255Z,44.70
2022-08-16T11:29:53.395Z,43.60
2022-08-16T11:30:54.896Z,42.79
2022-08-16T11:31:53.962Z,42.59
2022-08-16T11:32:51.155Z,42.20
2022-08-16T11:33:52.700Z,41.49
2022-08-16T11:35:10.421Z,43.46
2022-08-16T11:36:53.623Z,41.31
2022-08-16T11:38:46.798Z,42.00
2022-08-16T11:38:57.825Z,41.93
2022-08-16T11:39:55.265Z,41.90
2022-08-16T11:40:52.900Z,42.22
2022-08-16T11:41:53.085Z,43.24
2022-08-16T11:42:51.057Z,43.93
2022-08-16T11:43:51.063Z,43.86
2022-08-16T11:44:56.083Z,44.47
2022-08-16T11:45:53.881Z,44.67
2022-08-16T11:46:51.021Z,45.38
2022-08-16T11:47:51.072Z,45.70
2022-08-16T11:48:51.006Z,45.52
2022-08-16T11:49:50.999Z,45.32
2022-08-16T11:50:51.410Z,44.42
2022-08-16T11:51:50.968Z,44.00
2022-08-16T11:52:50.970Z,44.67
2022-08-16T11:53:51.827Z,44.07
2022-08-16T11:54:56.746Z,44.79
2022-08-16T11:55:55.020Z,44.20
2022-08-16T11:56:52.408Z,44.39
2022-08-16T11:57:51.552Z,44.10
2022-08-16T11:58:56.912Z,44.37
2022-08-16T11:59:51.890Z,44.29
2022-08-16T12:00:52.757Z,44.20
2022-08-16T12:01:54.889Z,44.59
2022-08-16T12:02:50.883Z,44.18
2022-08-16T12:03:50.890Z,44.57
2022-08-16T12:04:51.696Z,44.35
2022-08-16T12:05:52.079Z,42.68
2022-08-16T12:06:53.530Z,44.06
2022-08-16T12:07:50.930Z,42.95
2022-08-16T12:08:50.816Z,43.23
2022-08-16T12:09:50.854Z,42.14
2022-08-16T12:10:50.865Z,42.04
2022-08-16T12:11:52.685Z,41.33
2022-08-16T12:12:50.773Z,41.43
2022-08-16T12:13:50.779Z,42.24
2022-08-16T12:14:59.237Z,41.93
2022-08-16T12:15:51.743Z,41.53
2022-08-16T12:16:55.534Z,41.22
2022-08-16T12:17:51.730Z,41.49
2022-08-16T12:18:50.741Z,39.72
2022-08-16T12:19:50.715Z,40.61
2022-08-16T12:20:50.691Z,40.61
2022-08-16T12:21:58.773Z,40.70
2022-08-16T12:22:51.657Z,40.45
2022-08-16T12:23:50.657Z,40.74
2022-08-16T12:24:52.059Z,40.72
2022-08-16T12:25:51.022Z,41.41
2022-08-16T12:26:50.642Z,41.02
2022-08-16T12:27:50.815Z,40.72
2022-08-16T12:28:56.039Z,40.21
2022-08-16T12:29:51.628Z,39.72
2022-08-16T12:30:50.641Z,39.72
2022-08-16T12:31:59.067Z,39.42
2022-08-16T12:32:53.265Z,39.50
2022-08-16T12:33:54.442Z,39.11
2022-08-16T12:34:52.774Z,39.48
2022-08-16T12:35:50.588Z,39.60
2022-08-16T12:36:50.539Z,39.01
2022-08-16T12:37:55.469Z,40.00
2022-08-16T12:38:52.973Z,40.01
2022-08-16T12:39:50.920Z,39.82
2022-08-16T12:40:50.496Z,39.62
2022-08-16T12:41:50.485Z,39.82
2022-08-16T12:42:52.817Z,39.01
2022-08-16T12:43:50.487Z,39.01
2022-08-16T12:44:50.482Z,38.92
2022-08-16T12:45:50.450Z,39.21
2022-08-16T12:46:50.440Z,39.70
2022-08-16T12:47:50.450Z,38.31
2022-08-16T12:48:50.430Z,38.82
2022-08-16T12:49:50.412Z,37.93
2022-08-16T12:50:50.443Z,37.84
2022-08-16T12:51:58.191Z,37.72
2022-08-16T12:52:52.583Z,39.09
2022-08-16T12:54:22.293Z,39.00
2022-08-16T12:54:55.063Z,39.40
2022-08-16T12:55:50.366Z,38.93
2022-08-16T12:56:50.761Z,39.62
2022-08-16T12:57:57.859Z,39.62
2022-08-16T12:58:52.034Z,39.70
2022-08-16T12:59:50.305Z,39.60